Seihou Maru — JM6496 — position and weather

sailwx.info

Track history (hours):
 
Tides and Currents Weather Stations Pressure Air Temp Water Temp Dewpoint Dewpoint Depression Visibility Wind Speed Wind Dir Waves Ship Positions

Seihou Maru

Last reported at 2017-Nov-18 05:55 UTC. Time now 2017-Nov-18 06:21 UTC.
Position N 35°36' E 139°56'.

Length 71 m; draft 4 m.

Type: Tanker. MMSI: 431400523.

Date/timePositionNaut miles runAvg speedWind from/ knotsBaromVisibWave heightAir tempDewpointWater temp
2017-Nov-18 05:55N 35°36' E 139°56'0 0.0
2017-Nov-18 05:28N 35°36' E 139°56'0 0.0
2017-Nov-18 04:52N 35°36' E 139°56'2 4.1
2017-Nov-18 04:29N 35°37' E 139°57'5 1.5
2017-Nov-18 01:21N 35°33' E 139°59'4 1.5
2017-Nov-17 22:51N 35°30' E 140°02'1 0.1
2017-Nov-17 12:37N 35°30' E 140°00'1 7.4
2017-Nov-17 12:30N 35°30' E 139°59'612.4
2017-Nov-17 11:59N 35°28' E 139°52'612.5
2017-Nov-17 11:30N 35°24' E 139°46'612.0
2017-Nov-17 11:00N 35°18' E 139°44'611.4
2017-Nov-17 10:30N 35°13' E 139°47'612.8
2017-Nov-17 10:00N 35°07' E 139°46'713.5
2017-Nov-17 09:30N 35°02' E 139°41'713.5
2017-Nov-17 09:00N 34°58' E 139°34'21 0.9
2017-Nov-16 10:22N 34°50' E 139°10'512.6
2017-Nov-16 10:00N 34°54' E 139°14'1112.4
2017-Nov-16 09:08N 34°60' E 139°25'212.5
2017-Nov-16 09:00N 35°01' E 139°27'612.6
2017-Nov-16 08:30N 35°03' E 139°34'612.7
2017-Nov-16 08:01N 35°06' E 139°41'612.7
2017-Nov-16 07:30N 35°11' E 139°45'612.3
2017-Nov-16 07:01N 35°17' E 139°45'612.3
2017-Nov-16 06:31N 35°23' E 139°42'612.8
2017-Nov-16 06:01N 35°27' E 139°48'612.9
2017-Nov-16 05:30N 35°30' E 139°55'5 0.7
2017-Nov-15 22:43N 35°30' E 140°01'1 1.9
2017-Nov-15 22:22N 35°30' E 140°00'0 0.0
2017-Nov-15 21:58N 35°30' E 140°00'0 0.0
2017-Nov-15 21:22N 35°30' E 140°00'0 0.0
2017-Nov-15 13:04N 35°30' E 140°00'0 0.0
2017-Nov-15 12:52N 35°30' E 140°00'0 0.0
2017-Nov-15 12:24N 35°30' E 140°00'411.0
2017-Nov-15 12:00N 35°29' E 139°55'612.6
2017-Nov-15 11:30N 35°26' E 139°48'612.7
2017-Nov-15 11:00N 35°20' E 139°45'510.8
2017-Nov-15 10:30N 35°15' E 139°47'612.5
2017-Nov-15 10:00N 35°09' E 139°47'612.6
2017-Nov-15 09:30N 35°04' E 139°43'713.3
2017-Nov-15 09:00N 34°60' E 139°36'713.4
2017-Nov-15 08:29N 34°55' E 139°29'18 0.9
2017-Nov-14 12:37N 34°48' E 139°10'212.1
2017-Nov-14 12:26N 34°50' E 139°11'912.1
2017-Nov-14 11:44N 34°56' E 139°18'312.2
2017-Nov-14 11:30N 34°58' E 139°21'612.5
2017-Nov-14 11:00N 35°01' E 139°28'612.2
2017-Nov-14 10:30N 35°04' E 139°34'612.7
2017-Nov-14 10:00N 35°07' E 139°41'713.4
2017-Nov-14 09:31N 35°12' E 139°46'612.5
2017-Nov-14 09:00N 35°18' E 139°44'611.9
2017-Nov-14 08:30N 35°24' E 139°43'612.9
2017-Nov-14 08:00N 35°28' E 139°49'51 1.3
2017-Nov-12 16:56N 34°49' E 139°10'612.7
2017-Nov-12 16:30N 34°53' E 139°14'1012.3
2017-Nov-12 15:40N 34°59' E 139°24'212.2
2017-Nov-12 15:29N 35°00' E 139°26'612.3
2017-Nov-12 15:00N 35°03' E 139°33'612.8
2017-Nov-12 14:30N 35°06' E 139°39'612.5
2017-Nov-12 14:00N 35°11' E 139°44'611.9
2017-Nov-12 13:30N 35°16' E 139°45'612.4
2017-Nov-12 13:00N 35°22' E 139°42'611.9
2017-Nov-12 12:30N 35°27' E 139°47'612.6
2017-Nov-12 12:00N 35°31' E 139°52'5 0.4
2017-Nov-11 22:11N 35°36' E 139°55'0 0.0
2017-Nov-11 21:53N 35°36' E 139°55'0 0.0
2017-Nov-11 21:29N 35°36' E 139°55'0 0.0
2017-Nov-11 20:59N 35°36' E 139°55'0 0.0
2017-Nov-11 20:29N 35°36' E 139°55'0 0.0
2017-Nov-11 19:56N 35°36' E 139°55'0 0.0
2017-Nov-11 19:29N 35°36' E 139°55'0 0.0
2017-Nov-11 18:59N 35°36' E 139°55'0 0.0
2017-Nov-11 18:29N 35°36' E 139°55'0 0.0
2017-Nov-11 17:53N 35°36' E 139°55'0 0.0
2017-Nov-11 15:02N 35°36' E 139°55'0 0.0
2017-Nov-11 14:38N 35°36' E 139°55'0 0.0
2017-Nov-11 07:32N 35°36' E 139°55'0 0.8
2017-Nov-11 07:27N 35°36' E 139°55'2 0.3
2017-Nov-11 01:43N 35°36' E 139°57'1 6.3
2017-Nov-11 01:30N 35°36' E 139°55'0 0.1
2017-Nov-11 01:00N 35°36' E 139°55'0 0.0
2017-Nov-11 00:30N 35°36' E 139°55'0 0.0
2017-Nov-10 23:50N 35°36' E 139°55'0 0.0
2017-Nov-10 23:27N 35°36' E 139°55'0 0.0
2017-Nov-10 22:59N 35°36' E 139°55'0 0.0
2017-Nov-10 22:23N 35°36' E 139°55'0 0.0
2017-Nov-10 22:00N 35°36' E 139°55'0 0.0
2017-Nov-10 21:11N 35°36' E 139°55'0 0.0
2017-Nov-10 20:55N 35°36' E 139°55'0 0.0
2017-Nov-10 20:31N 35°36' E 139°55'0 0.0
2017-Nov-10 20:00N 35°36' E 139°55'0 0.1
2017-Nov-10 19:30N 35°36' E 139°55'0 0.0
2017-Nov-10 18:56N 35°36' E 139°55'0 0.0
2017-Nov-10 18:28N 35°36' E 139°55'0 0.0
2017-Nov-10 17:55N 35°36' E 139°55'0 0.0
2017-Nov-10 16:02N 35°36' E 139°55'0 0.0
2017-Nov-10 15:44N 35°36' E 139°55'0 0.1
2017-Nov-10 14:36N 35°36' E 139°55'0 0.0
2017-Nov-10 14:27N 35°36' E 139°55'0 0.0
2017-Nov-10 14:00N 35°36' E 139°55'0 0.0
2017-Nov-10 13:27N 35°36' E 139°55'0 0.0
2017-Nov-10 12:07N 35°36' E 139°55'0 0.0
2017-Nov-10 11:58N 35°36' E 139°55'0 0.1
2017-Nov-10 11:04N 35°36' E 139°55'0 0.0
2017-Nov-10 10:52N 35°36' E 139°55'0 0.0
2017-Nov-10 09:13N 35°36' E 139°55'0 0.0
2017-Nov-10 08:58N 35°36' E 139°55'0 0.0
2017-Nov-10 07:31N 35°36' E 139°55'0 0.2
2017-Nov-10 07:13N 35°36' E 139°55'7 0.8
2017-Nov-09 21:46N 35°30' E 140°01'1 5.2
2017-Nov-09 21:30N 35°30' E 139°59'4 6.9
2017-Nov-09 20:59N 35°29' E 139°55'0 0.0
2017-Nov-08 23:05N 35°29' E 139°55'1 5.3
2017-Nov-08 22:52N 35°29' E 139°57'2 4.8
2017-Nov-08 22:30N 35°30' E 139°59'3 1.4
2017-Nov-08 20:28N 35°29' E 139°55'0 0.0
2017-Nov-08 18:37N 35°29' E 139°55'0 0.0
2017-Nov-08 15:25N 35°29' E 139°55'0 0.0
2017-Nov-08 14:58N 35°29' E 139°55'0 0.0
2017-Nov-08 06:39N 35°29' E 139°55'  
Track history (hours):
 
Tides and Currents Weather Stations Pressure Air Temp Water Temp Dewpoint Dewpoint Depression Visibility Wind Speed Wind Dir Waves Ship Positions

Seihou Maru

Last reported at 2017-Nov-18 05:55 UTC. Time now 2017-Nov-18 06:21 UTC.
Position N 35°36' E 139°56'.

Length 71 m; draft 4 m.

Type: Tanker. MMSI: 431400523.

Date/timePositionNaut miles runAvg speedWind from/ knotsBaromVisibWave heightAir tempDewpointWater temp
2017-Nov-18 05:55N 35°36' E 139°56'0 0.0
2017-Nov-18 05:28N 35°36' E 139°56'0 0.0
2017-Nov-18 04:52N 35°36' E 139°56'2 4.1
2017-Nov-18 04:29N 35°37' E 139°57'5 1.5
2017-Nov-18 01:21N 35°33' E 139°59'4 1.5
2017-Nov-17 22:51N 35°30' E 140°02'1 0.1
2017-Nov-17 12:37N 35°30' E 140°00'1 7.4
2017-Nov-17 12:30N 35°30' E 139°59'612.4
2017-Nov-17 11:59N 35°28' E 139°52'612.5
2017-Nov-17 11:30N 35°24' E 139°46'612.0
2017-Nov-17 11:00N 35°18' E 139°44'611.4
2017-Nov-17 10:30N 35°13' E 139°47'612.8
2017-Nov-17 10:00N 35°07' E 139°46'713.5
2017-Nov-17 09:30N 35°02' E 139°41'713.5
2017-Nov-17 09:00N 34°58' E 139°34'21 0.9
2017-Nov-16 10:22N 34°50' E 139°10'512.6
2017-Nov-16 10:00N 34°54' E 139°14'1112.4
2017-Nov-16 09:08N 34°60' E 139°25'212.5
2017-Nov-16 09:00N 35°01' E 139°27'612.6
2017-Nov-16 08:30N 35°03' E 139°34'612.7
2017-Nov-16 08:01N 35°06' E 139°41'612.7
2017-Nov-16 07:30N 35°11' E 139°45'612.3
2017-Nov-16 07:01N 35°17' E 139°45'612.3
2017-Nov-16 06:31N 35°23' E 139°42'612.8
2017-Nov-16 06:01N 35°27' E 139°48'612.9
2017-Nov-16 05:30N 35°30' E 139°55'5 0.7
2017-Nov-15 22:43N 35°30' E 140°01'1 1.9
2017-Nov-15 22:22N 35°30' E 140°00'0 0.0
2017-Nov-15 21:58N 35°30' E 140°00'0 0.0
2017-Nov-15 21:22N 35°30' E 140°00'0 0.0
2017-Nov-15 13:04N 35°30' E 140°00'0 0.0
2017-Nov-15 12:52N 35°30' E 140°00'0 0.0
2017-Nov-15 12:24N 35°30' E 140°00'411.0
2017-Nov-15 12:00N 35°29' E 139°55'612.6
2017-Nov-15 11:30N 35°26' E 139°48'612.7
2017-Nov-15 11:00N 35°20' E 139°45'510.8
2017-Nov-15 10:30N 35°15' E 139°47'612.5
2017-Nov-15 10:00N 35°09' E 139°47'612.6
2017-Nov-15 09:30N 35°04' E 139°43'713.3
2017-Nov-15 09:00N 34°60' E 139°36'713.4
2017-Nov-15 08:29N 34°55' E 139°29'18 0.9
2017-Nov-14 12:37N 34°48' E 139°10'212.1
2017-Nov-14 12:26N 34°50' E 139°11'912.1
2017-Nov-14 11:44N 34°56' E 139°18'312.2
2017-Nov-14 11:30N 34°58' E 139°21'612.5
2017-Nov-14 11:00N 35°01' E 139°28'612.2
2017-Nov-14 10:30N 35°04' E 139°34'612.7
2017-Nov-14 10:00N 35°07' E 139°41'713.4
2017-Nov-14 09:31N 35°12' E 139°46'612.5
2017-Nov-14 09:00N 35°18' E 139°44'611.9
2017-Nov-14 08:30N 35°24' E 139°43'612.9
2017-Nov-14 08:00N 35°28' E 139°49'51 1.3
2017-Nov-12 16:56N 34°49' E 139°10'612.7
2017-Nov-12 16:30N 34°53' E 139°14'1012.3
2017-Nov-12 15:40N 34°59' E 139°24'212.2
2017-Nov-12 15:29N 35°00' E 139°26'612.3
2017-Nov-12 15:00N 35°03' E 139°33'612.8
2017-Nov-12 14:30N 35°06' E 139°39'612.5
2017-Nov-12 14:00N 35°11' E 139°44'611.9
2017-Nov-12 13:30N 35°16' E 139°45'612.4
2017-Nov-12 13:00N 35°22' E 139°42'611.9
2017-Nov-12 12:30N 35°27' E 139°47'612.6
2017-Nov-12 12:00N 35°31' E 139°52'5 0.4
2017-Nov-11 22:11N 35°36' E 139°55'0 0.0
2017-Nov-11 21:53N 35°36' E 139°55'0 0.0
2017-Nov-11 21:29N 35°36' E 139°55'0 0.0
2017-Nov-11 20:59N 35°36' E 139°55'0 0.0
2017-Nov-11 20:29N 35°36' E 139°55'0 0.0
2017-Nov-11 19:56N 35°36' E 139°55'0 0.0
2017-Nov-11 19:29N 35°36' E 139°55'0 0.0
2017-Nov-11 18:59N 35°36' E 139°55'0 0.0
2017-Nov-11 18:29N 35°36' E 139°55'0 0.0
2017-Nov-11 17:53N 35°36' E 139°55'0 0.0
2017-Nov-11 15:02N 35°36' E 139°55'0 0.0
2017-Nov-11 14:38N 35°36' E 139°55'0 0.0
2017-Nov-11 07:32N 35°36' E 139°55'0 0.8
2017-Nov-11 07:27N 35°36' E 139°55'2 0.3
2017-Nov-11 01:43N 35°36' E 139°57'1 6.3
2017-Nov-11 01:30N 35°36' E 139°55'0 0.1
2017-Nov-11 01:00N 35°36' E 139°55'0 0.0
2017-Nov-11 00:30N 35°36' E 139°55'0 0.0
2017-Nov-10 23:50N 35°36' E 139°55'0 0.0
2017-Nov-10 23:27N 35°36' E 139°55'0 0.0
2017-Nov-10 22:59N 35°36' E 139°55'0 0.0
2017-Nov-10 22:23N 35°36' E 139°55'0 0.0
2017-Nov-10 22:00N 35°36' E 139°55'0 0.0
2017-Nov-10 21:11N 35°36' E 139°55'0 0.0
2017-Nov-10 20:55N 35°36' E 139°55'0 0.0
2017-Nov-10 20:31N 35°36' E 139°55'0 0.0
2017-Nov-10 20:00N 35°36' E 139°55'0 0.1
2017-Nov-10 19:30N 35°36' E 139°55'0 0.0
2017-Nov-10 18:56N 35°36' E 139°55'0 0.0
2017-Nov-10 18:28N 35°36' E 139°55'0 0.0
2017-Nov-10 17:55N 35°36' E 139°55'0 0.0
2017-Nov-10 16:02N 35°36' E 139°55'0 0.0
2017-Nov-10 15:44N 35°36' E 139°55'0 0.1
2017-Nov-10 14:36N 35°36' E 139°55'0 0.0
2017-Nov-10 14:27N 35°36' E 139°55'0 0.0
2017-Nov-10 14:00N 35°36' E 139°55'0 0.0
2017-Nov-10 13:27N 35°36' E 139°55'0 0.0
2017-Nov-10 12:07N 35°36' E 139°55'0 0.0
2017-Nov-10 11:58N 35°36' E 139°55'0 0.1
2017-Nov-10 11:04N 35°36' E 139°55'0 0.0
2017-Nov-10 10:52N 35°36' E 139°55'0 0.0
2017-Nov-10 09:13N 35°36' E 139°55'0 0.0
2017-Nov-10 08:58N 35°36' E 139°55'0 0.0
2017-Nov-10 07:31N 35°36' E 139°55'0 0.2
2017-Nov-10 07:13N 35°36' E 139°55'7 0.8
2017-Nov-09 21:46N 35°30' E 140°01'1 5.2
2017-Nov-09 21:30N 35°30' E 139°59'4 6.9
2017-Nov-09 20:59N 35°29' E 139°55'0 0.0
2017-Nov-08 23:05N 35°29' E 139°55'1 5.3
2017-Nov-08 22:52N 35°29' E 139°57'2 4.8
2017-Nov-08 22:30N 35°30' E 139°59'3 1.4
2017-Nov-08 20:28N 35°29' E 139°55'0 0.0
2017-Nov-08 18:37N 35°29' E 139°55'0 0.0
2017-Nov-08 15:25N 35°29' E 139°55'0 0.0
2017-Nov-08 14:58N 35°29' E 139°55'0 0.0
2017-Nov-08 06:39N 35°29' E 139°55'  

Dump ship's entire track history